sensor_id;sensor_type;location;lat;lon;timestamp;pressure;altitude;pressure_sealevel;temperature;humidity
47897;BME280;39629;51.400;5.494;2023-03-03T00:03:36;102231.28;;;-0.25;100.00
47897;BME280;39629;51.400;5.494;2023-03-03T00:08:39;102237.47;;;-0.37;100.00
47897;BME280;39629;51.400;5.494;2023-03-03T00:13:46;102242.03;;;-0.19;100.00
47897;BME280;39629;51.400;5.494;2023-03-03T00:18:49;102244.63;;;-0.19;100.00
47897;BME280;39629;51.400;5.494;2023-03-03T00:23:51;102249.44;;;-0.39;100.00
47897;BME280;39629;51.400;5.494;2023-03-03T00:28:55;102252.38;;;-0.32;100.00
47897;BME280;39629;51.400;5.494;2023-03-03T00:34:02;102245.75;;;-0.29;100.00
47897;BME280;39629;51.400;5.494;2023-03-03T00:39:21;102251.97;;;-0.25;100.00
47897;BME280;39629;51.400;5.494;2023-03-03T00:44:42;102260.56;;;-0.26;100.00
47897;BME280;39629;51.400;5.494;2023-03-03T00:49:44;102261.94;;;-0.31;100.00
47897;BME280;39629;51.400;5.494;2023-03-03T00:54:46;102270.00;;;-0.27;100.00
47897;BME280;39629;51.400;5.494;2023-03-03T00:59:49;102270.78;;;-0.28;100.00
47897;BME280;39629;51.400;5.494;2023-03-03T01:04:52;102279.16;;;-0.32;100.00
47897;BME280;39629;51.400;5.494;2023-03-03T01:09:55;102281.88;;;-0.30;100.00
47897;BME280;39629;51.400;5.494;2023-03-03T01:14:58;102278.34;;;-0.31;100.00
47897;BME280;39629;51.400;5.494;2023-03-03T01:20:00;102274.09;;;-0.30;100.00
47897;BME280;39629;51.400;5.494;2023-03-03T01:25:02;102275.88;;;-0.29;100.00
47897;BME280;39629;51.400;5.494;2023-03-03T01:30:08;102282.84;;;-0.28;100.00
47897;BME280;39629;51.400;5.494;2023-03-03T01:35:11;102287.63;;;-0.34;100.00
47897;BME280;39629;51.400;5.494;2023-03-03T01:40:15;102296.88;;;-0.38;100.00
47897;BME280;39629;51.400;5.494;2023-03-03T01:45:20;102296.34;;;-0.46;100.00
47897;BME280;39629;51.400;5.494;2023-03-03T01:50:32;102299.34;;;-0.40;100.00
47897;BME280;39629;51.400;5.494;2023-03-03T01:55:38;102304.44;;;-0.41;100.00
47897;BME280;39629;51.400;5.494;2023-03-03T02:00:45;102298.47;;;-0.54;100.00
47897;BME280;39629;51.400;5.494;2023-03-03T02:05:53;102299.34;;;-0.53;100.00
47897;BME280;39629;51.400;5.494;2023-03-03T02:10:56;102291.38;;;-0.56;100.00
47897;BME280;39629;51.400;5.494;2023-03-03T02:16:00;102282.84;;;-0.55;100.00
47897;BME280;39629;51.400;5.494;2023-03-03T02:21:05;102285.41;;;-0.68;100.00
47897;BME280;39629;51.400;5.494;2023-03-03T02:26:11;102288.78;;;-0.70;100.00
47897;BME280;39629;51.400;5.494;2023-03-03T02:31:16;102299.72;;;-0.60;100.00
47897;BME280;39629;51.400;5.494;2023-03-03T02:36:21;102297.94;;;-0.61;100.00
47897;BME280;39629;51.400;5.494;2023-03-03T02:41:29;102305.47;;;-0.78;100.00
47897;BME280;39629;51.400;5.494;2023-03-03T02:46:36;102293.75;;;-0.73;100.00
47897;BME280;39629;51.400;5.494;2023-03-03T02:51:39;102301.50;;;-0.73;100.00
47897;BME280;39629;51.400;5.494;2023-03-03T02:56:43;102299.84;;;-0.72;100.00
47897;BME280;39629;51.400;5.494;2023-03-03T03:01:45;102295.94;;;-0.65;100.00
47897;BME280;39629;51.400;5.494;2023-03-03T03:06:50;102295.25;;;-0.63;100.00
47897;BME280;39629;51.400;5.494;2023-03-03T03:11:54;102305.00;;;-0.59;100.00
47897;BME280;39629;51.400;5.494;2023-03-03T03:16:59;102308.28;;;-0.61;100.00
47897;BME280;39629;51.400;5.494;2023-03-03T03:22:02;102305.31;;;-0.54;100.00
47897;BME280;39629;51.400;5.494;2023-03-03T03:27:07;102305.53;;;-0.51;100.00
47897;BME280;39629;51.400;5.494;2023-03-03T03:32:09;102315.88;;;-0.51;100.00
47897;BME280;39629;51.400;5.494;2023-03-03T03:37:13;102325.19;;;-0.53;100.00
47897;BME280;39629;51.400;5.494;2023-03-03T03:42:17;102320.84;;;-0.54;100.00
47897;BME280;39629;51.400;5.494;2023-03-03T03:47:19;102322.84;;;-0.50;100.00
47897;BME280;39629;51.400;5.494;2023-03-03T03:52:21;102314.25;;;-0.49;100.00
47897;BME280;39629;51.400;5.494;2023-03-03T03:57:25;102320.44;;;-0.47;100.00
47897;BME280;39629;51.400;5.494;2023-03-03T04:02:27;102323.22;;;-0.44;100.00
47897;BME280;39629;51.400;5.494;2023-03-03T04:07:29;102327.72;;;-0.41;100.00
47897;BME280;39629;51.400;5.494;2023-03-03T04:12:32;102328.41;;;-0.44;100.00
47897;BME280;39629;51.400;5.494;2023-03-03T04:17:38;102325.81;;;-0.44;100.00
47897;BME280;39629;51.400;5.494;2023-03-03T04:22:41;102330.09;;;-0.44;100.00
47897;BME280;39629;51.400;5.494;2023-03-03T04:27:44;102329.97;;;-0.46;100.00
47897;BME280;39629;51.400;5.494;2023-03-03T04:32:47;102335.78;;;-0.50;100.00
47897;BME280;39629;51.400;5.494;2023-03-03T04:37:53;102325.63;;;-0.47;100.00
47897;BME280;39629;51.400;5.494;2023-03-03T04:42:56;102332.88;;;-0.41;100.00
47897;BME280;39629;51.400;5.494;2023-03-03T04:47:58;102339.28;;;-0.36;100.00
47897;BME280;39629;51.400;5.494;2023-03-03T04:53:00;102338.13;;;-0.53;100.00
47897;BME280;39629;51.400;5.494;2023-03-03T04:58:04;102341.03;;;-0.48;100.00
47897;BME280;39629;51.400;5.494;2023-03-03T05:03:06;102347.00;;;-0.49;100.00
47897;BME280;39629;51.400;5.494;2023-03-03T05:08:08;102345.09;;;-0.52;100.00
47897;BME280;39629;51.400;5.494;2023-03-03T05:13:11;102352.16;;;-0.49;100.00
47897;BME280;39629;51.400;5.494;2023-03-03T05:18:14;102337.88;;;-0.44;100.00
47897;BME280;39629;51.400;5.494;2023-03-03T05:23:16;102349.28;;;-0.41;100.00
47897;BME280;39629;51.400;5.494;2023-03-03T05:28:19;102358.25;;;-0.36;100.00
47897;BME280;39629;51.400;5.494;2023-03-03T05:33:20;102353.69;;;-0.40;100.00
47897;BME280;39629;51.400;5.494;2023-03-03T05:38:22;102356.94;;;-0.42;100.00
47897;BME280;39629;51.400;5.494;2023-03-03T05:43:25;102349.88;;;-0.45;100.00
47897;BME280;39629;51.400;5.494;2023-03-03T05:48:27;102357.25;;;-0.38;100.00
47897;BME280;39629;51.400;5.494;2023-03-03T05:53:29;102358.25;;;-0.36;100.00
47897;BME280;39629;51.400;5.494;2023-03-03T05:58:32;102362.06;;;-0.30;100.00
47897;BME280;39629;51.400;5.494;2023-03-03T06:03:33;102370.59;;;-0.31;100.00
47897;BME280;39629;51.400;5.494;2023-03-03T06:08:35;102370.78;;;-0.28;100.00
47897;BME280;39629;51.400;5.494;2023-03-03T06:13:38;102374.16;;;-0.29;100.00
47897;BME280;39629;51.400;5.494;2023-03-03T06:18:40;102372.59;;;-0.27;100.00
47897;BME280;39629;51.400;5.494;2023-03-03T06:23:42;102377.19;;;-0.23;100.00
47897;BME280;39629;51.400;5.494;2023-03-03T06:28:45;102382.34;;;-0.23;100.00
47897;BME280;39629;51.400;5.494;2023-03-03T06:33:47;102391.41;;;-0.16;100.00
47897;BME280;39629;51.400;5.494;2023-03-03T06:38:48;102389.91;;;-0.13;100.00
47897;BME280;39629;51.400;5.494;2023-03-03T06:43:51;102392.69;;;-0.10;100.00
47897;BME280;39629;51.400;5.494;2023-03-03T06:48:53;102405.25;;;-0.03;100.00
47897;BME280;39629;51.400;5.494;2023-03-03T06:53:57;102414.00;;;-0.00;100.00
47897;BME280;39629;51.400;5.494;2023-03-03T06:59:04;102417.03;;;0.06;100.00
47897;BME280;39629;51.400;5.494;2023-03-03T07:04:15;102418.19;;;0.11;100.00
47897;BME280;39629;51.400;5.494;2023-03-03T07:09:22;102428.97;;;0.17;100.00
47897;BME280;39629;51.400;5.494;2023-03-03T07:14:27;102433.53;;;0.21;100.00
47897;BME280;39629;51.400;5.494;2023-03-03T07:19:32;102434.72;;;0.26;100.00
47897;BME280;39629;51.400;5.494;2023-03-03T07:24:34;102419.59;;;0.32;100.00
47897;BME280;39629;51.400;5.494;2023-03-03T07:29:39;102426.06;;;0.39;100.00
47897;BME280;39629;51.400;5.494;2023-03-03T07:34:44;102435.13;;;0.46;100.00
47897;BME280;39629;51.400;5.494;2023-03-03T07:39:49;102436.31;;;0.51;100.00
47897;BME280;39629;51.400;5.494;2023-03-03T07:44:52;102443.66;;;0.58;100.00
47897;BME280;39629;51.400;5.494;2023-03-03T07:49:55;102449.44;;;0.68;100.00
47897;BME280;39629;51.400;5.494;2023-03-03T07:54:59;102455.72;;;0.71;100.00
47897;BME280;39629;51.400;5.494;2023-03-03T08:05:43;102458.84;;;0.94;100.00
47897;BME280;39629;51.400;5.494;2023-03-03T08:10:48;102467.91;;;1.00;100.00
47897;BME280;39629;51.400;5.494;2023-03-03T08:16:01;102474.06;;;1.03;100.00
47897;BME280;39629;51.400;5.494;2023-03-03T08:21:04;102476.06;;;1.07;100.00
47897;BME280;39629;51.400;5.494;2023-03-03T08:26:08;102478.09;;;1.26;100.00
47897;BME280;39629;51.400;5.494;2023-03-03T08:31:13;102479.00;;;1.26;100.00
47897;BME280;39629;51.400;5.494;2023-03-03T08:36:14;102481.09;;;1.32;100.00
47897;BME280;39629;51.400;5.494;2023-03-03T08:41:16;102492.09;;;1.43;100.00
47897;BME280;39629;51.400;5.494;2023-03-03T08:46:19;102491.91;;;1.40;100.00
47897;BME280;39629;51.400;5.494;2023-03-03T08:51:21;102493.38;;;1.49;100.00
47897;BME280;39629;51.400;5.494;2023-03-03T08:56:23;102499.41;;;1.63;100.00
47897;BME280;39629;51.400;5.494;2023-03-03T09:01:26;102503.09;;;1.67;100.00
47897;BME280;39629;51.400;5.494;2023-03-03T09:06:28;102504.16;;;1.71;100.00
47897;BME280;39629;51.400;5.494;2023-03-03T09:11:30;102502.38;;;1.69;100.00
47897;BME280;39629;51.400;5.494;2023-03-03T09:16:37;102505.59;;;1.80;100.00
47897;BME280;39629;51.400;5.494;2023-03-03T09:21:40;102501.50;;;1.84;100.00
47897;BME280;39629;51.400;5.494;2023-03-03T09:26:44;102506.63;;;1.97;100.00
47897;BME280;39629;51.400;5.494;2023-03-03T09:31:50;102511.47;;;2.21;100.00
47897;BME280;39629;51.400;5.494;2023-03-03T09:36:53;102512.53;;;2.10;100.00
47897;BME280;39629;51.400;5.494;2023-03-03T09:42:13;102516.03;;;2.25;100.00
47897;BME280;39629;51.400;5.494;2023-03-03T09:47:29;102520.59;;;2.29;100.00
47897;BME280;39629;51.400;5.494;2023-03-03T09:52:39;102524.00;;;2.43;100.00
47897;BME280;39629;51.400;5.494;2023-03-03T09:57:55;102518.16;;;2.47;100.00
47897;BME280;39629;51.400;5.494;2023-03-03T10:03:18;102523.75;;;2.70;100.00
47897;BME280;39629;51.400;5.494;2023-03-03T10:08:35;102526.34;;;2.85;100.00
47897;BME280;39629;51.400;5.494;2023-03-03T10:13:49;102522.19;;;3.20;100.00
47897;BME280;39629;51.400;5.494;2023-03-03T10:19:00;102534.81;;;2.97;100.00
47897;BME280;39629;51.400;5.494;2023-03-03T10:24:12;102531.22;;;3.27;100.00
47897;BME280;39629;51.400;5.494;2023-03-03T10:29:27;102528.31;;;3.53;100.00
47897;BME280;39629;51.400;5.494;2023-03-03T10:34:47;102534.66;;;3.59;100.00
47897;BME280;39629;51.400;5.494;2023-03-03T10:40:02;102523.16;;;3.88;100.00
47897;BME280;39629;51.400;5.494;2023-03-03T10:45:30;102520.50;;;3.70;100.00
47897;BME280;39629;51.400;5.494;2023-03-03T10:50:47;102524.81;;;4.38;100.00
47897;BME280;39629;51.400;5.494;2023-03-03T10:56:06;102521.84;;;3.96;100.00
47897;BME280;39629;51.400;5.494;2023-03-03T11:01:17;102522.81;;;3.82;100.00
47897;BME280;39629;51.400;5.494;2023-03-03T11:06:28;102524.75;;;4.02;100.00
47897;BME280;39629;51.400;5.494;2023-03-03T11:11:40;102523.72;;;4.69;100.00
47897;BME280;39629;51.400;5.494;2023-03-03T11:16:55;102511.75;;;3.86;100.00
47897;BME280;39629;51.400;5.494;2023-03-03T11:22:04;102513.28;;;5.25;100.00
47897;BME280;39629;51.400;5.494;2023-03-03T11:27:37;102510.84;;;4.72;100.00
47897;BME280;39629;51.400;5.494;2023-03-03T11:32:49;102505.69;;;4.56;100.00
47897;BME280;39629;51.400;5.494;2023-03-03T11:38:03;102501.88;;;5.62;100.00
47897;BME280;39629;51.400;5.494;2023-03-03T11:43:09;102500.94;;;5.40;100.00
47897;BME280;39629;51.400;5.494;2023-03-03T11:48:17;102499.25;;;5.42;100.00
47897;BME280;39629;51.400;5.494;2023-03-03T11:53:35;102507.38;;;5.68;100.00
47897;BME280;39629;51.400;5.494;2023-03-03T11:58:44;102498.88;;;6.36;100.00
47897;BME280;39629;51.400;5.494;2023-03-03T12:03:51;102487.31;;;6.50;100.00
47897;BME280;39629;51.400;5.494;2023-03-03T12:09:08;102488.94;;;6.27;100.00
47897;BME280;39629;51.400;5.494;2023-03-03T12:14:21;102478.75;;;6.99;100.00
47897;BME280;39629;51.400;5.494;2023-03-03T12:19:34;102485.63;;;5.89;100.00
47897;BME280;39629;51.400;5.494;2023-03-03T12:24:50;102465.75;;;7.49;100.00
47897;BME280;39629;51.400;5.494;2023-03-03T12:30:05;102466.72;;;6.80;100.00
47897;BME280;39629;51.400;5.494;2023-03-03T12:35:17;102453.88;;;6.64;100.00
47897;BME280;39629;51.400;5.494;2023-03-03T12:40:24;102470.34;;;6.19;100.00
47897;BME280;39629;51.400;5.494;2023-03-03T12:45:36;102458.63;;;6.97;100.00
47897;BME280;39629;51.400;5.494;2023-03-03T12:50:51;102452.28;;;7.63;100.00
47897;BME280;39629;51.400;5.494;2023-03-03T12:56:03;102451.47;;;6.47;100.00
47897;BME280;39629;51.400;5.494;2023-03-03T13:01:13;102456.75;;;6.49;100.00
47897;BME280;39629;51.400;5.494;2023-03-03T13:06:26;102451.59;;;6.51;100.00
47897;BME280;39629;51.400;5.494;2023-03-03T13:11:54;102446.16;;;7.38;100.00
47897;BME280;39629;51.400;5.494;2023-03-03T13:17:08;102443.59;;;7.15;100.00
47897;BME280;39629;51.400;5.494;2023-03-03T13:22:19;102450.97;;;7.76;100.00
47897;BME280;39629;51.400;5.494;2023-03-03T13:27:33;102441.31;;;7.25;100.00
47897;BME280;39629;51.400;5.494;2023-03-03T13:32:43;102429.84;;;7.97;100.00
47897;BME280;39629;51.400;5.494;2023-03-03T13:37:51;102421.06;;;7.69;100.00
47897;BME280;39629;51.400;5.494;2023-03-03T13:42:58;102426.28;;;7.95;100.00
47897;BME280;39629;51.400;5.494;2023-03-03T13:48:09;102431.09;;;7.82;100.00
47897;BME280;39629;51.400;5.494;2023-03-03T13:53:37;102423.06;;;8.31;100.00
47897;BME280;39629;51.400;5.494;2023-03-03T13:58:49;102418.56;;;7.99;100.00
47897;BME280;39629;51.400;5.494;2023-03-03T14:04:04;102422.72;;;8.20;100.00
47897;BME280;39629;51.400;5.494;2023-03-03T14:09:18;102418.50;;;7.71;100.00
47897;BME280;39629;51.400;5.494;2023-03-03T14:14:34;102418.31;;;7.66;100.00
47897;BME280;39629;51.400;5.494;2023-03-03T14:19:43;102412.34;;;7.70;100.00
47897;BME280;39629;51.400;5.494;2023-03-03T14:24:56;102405.31;;;7.95;100.00
47897;BME280;39629;51.400;5.494;2023-03-03T14:30:24;102405.91;;;8.13;100.00
47897;BME280;39629;51.400;5.494;2023-03-03T14:35:29;102397.16;;;8.13;100.00
47897;BME280;39629;51.400;5.494;2023-03-03T14:40:34;102396.47;;;7.91;100.00
47897;BME280;39629;51.400;5.494;2023-03-03T14:45:39;102390.03;;;8.09;100.00
47897;BME280;39629;51.400;5.494;2023-03-03T14:50:43;102394.59;;;7.87;100.00
47897;BME280;39629;51.400;5.494;2023-03-03T14:55:50;102389.28;;;8.40;100.00
47897;BME280;39629;51.400;5.494;2023-03-03T15:01:08;102384.69;;;8.33;100.00
47897;BME280;39629;51.400;5.494;2023-03-03T15:06:35;102384.38;;;7.69;100.00
47897;BME280;39629;51.400;5.494;2023-03-03T15:11:38;102374.44;;;7.60;100.00
47897;BME280;39629;51.400;5.494;2023-03-03T15:16:41;102362.44;;;7.93;100.00
47897;BME280;39629;51.400;5.494;2023-03-03T15:21:51;102362.66;;;7.47;100.00
47897;BME280;39629;51.400;5.494;2023-03-03T15:26:58;102357.06;;;7.90;100.00
47897;BME280;39629;51.400;5.494;2023-03-03T15:32:07;102373.06;;;7.44;100.00
47897;BME280;39629;51.400;5.494;2023-03-03T15:37:25;102357.09;;;7.38;100.00
47897;BME280;39629;51.400;5.494;2023-03-03T15:42:32;102368.53;;;7.40;100.00
47897;BME280;39629;51.400;5.494;2023-03-03T15:47:52;102356.22;;;7.13;100.00
47897;BME280;39629;51.400;5.494;2023-03-03T15:53:06;102351.19;;;7.18;100.00
47897;BME280;39629;51.400;5.494;2023-03-03T15:58:32;102341.88;;;7.02;100.00
47897;BME280;39629;51.400;5.494;2023-03-03T16:03:38;102344.94;;;7.14;100.00
47897;BME280;39629;51.400;5.494;2023-03-03T16:08:51;102339.97;;;6.98;100.00
47897;BME280;39629;51.400;5.494;2023-03-03T16:14:07;102340.41;;;7.10;100.00
47897;BME280;39629;51.400;5.494;2023-03-03T16:19:25;102345.44;;;7.04;100.00
47897;BME280;39629;51.400;5.494;2023-03-03T16:24:41;102338.88;;;7.15;100.00
47897;BME280;39629;51.400;5.494;2023-03-03T16:29:55;102341.78;;;7.23;100.00
47897;BME280;39629;51.400;5.494;2023-03-03T16:35:16;102345.16;;;6.96;100.00
47897;BME280;39629;51.400;5.494;2023-03-03T16:40:22;102341.88;;;7.02;100.00
47897;BME280;39629;51.400;5.494;2023-03-03T16:45:26;102350.91;;;6.86;100.00
47897;BME280;39629;51.400;5.494;2023-03-03T16:50:38;102354.41;;;6.87;100.00
47897;BME280;39629;51.400;5.494;2023-03-03T16:55:52;102349.38;;;6.91;100.00
47897;BME280;39629;51.400;5.494;2023-03-03T17:01:04;102355.03;;;6.79;100.00
47897;BME280;39629;51.400;5.494;2023-03-03T17:06:15;102359.91;;;6.70;100.00
47897;BME280;39629;51.400;5.494;2023-03-03T17:11:24;102362.53;;;6.70;100.00
47897;BME280;39629;51.400;5.494;2023-03-03T17:16:34;102369.31;;;6.65;100.00
47897;BME280;39629;51.400;5.494;2023-03-03T17:21:52;102375.78;;;6.52;100.00
47897;BME280;39629;51.400;5.494;2023-03-03T17:27:05;102377.53;;;6.52;100.00
47897;BME280;39629;51.400;5.494;2023-03-03T17:32:25;102377.06;;;6.41;100.00
47897;BME280;39629;51.400;5.494;2023-03-03T17:37:36;102381.59;;;6.45;100.00
47897;BME280;39629;51.400;5.494;2023-03-03T17:42:43;102395.00;;;6.31;100.00
47897;BME280;39629;51.400;5.494;2023-03-03T17:48:11;102406.69;;;6.19;100.00
47897;BME280;39629;51.400;5.494;2023-03-03T17:53:34;102414.91;;;6.05;100.00
47897;BME280;39629;51.400;5.494;2023-03-03T17:59:17;102419.09;;;6.02;100.00
47897;BME280;39629;51.400;5.494;2023-03-03T18:04:33;102424.25;;;6.00;100.00
47897;BME280;39629;51.400;5.494;2023-03-03T18:09:56;102432.78;;;5.96;100.00
47897;BME280;39629;51.400;5.494;2023-03-03T18:15:12;102430.06;;;5.93;100.00
47897;BME280;39629;51.400;5.494;2023-03-03T18:20:55;102433.22;;;5.86;100.00
47897;BME280;39629;51.400;5.494;2023-03-03T18:26:03;102439.00;;;5.78;100.00
47897;BME280;39629;51.400;5.494;2023-03-03T18:31:19;102447.53;;;5.74;100.00
47897;BME280;39629;51.400;5.494;2023-03-03T18:36:36;102443.78;;;5.68;100.00
47897;BME280;39629;51.400;5.494;2023-03-03T18:42:04;102445.38;;;5.64;100.00
47897;BME280;39629;51.400;5.494;2023-03-03T18:47:08;102452.06;;;5.57;100.00
47897;BME280;39629;51.400;5.494;2023-03-03T18:52:16;102448.22;;;5.49;100.00
47897;BME280;39629;51.400;5.494;2023-03-03T18:57:20;102452.25;;;5.42;100.00
47897;BME280;39629;51.400;5.494;2023-03-03T19:02:35;102445.00;;;5.35;100.00
47897;BME280;39629;51.400;5.494;2023-03-03T19:08:00;102451.59;;;5.27;100.00
47897;BME280;39629;51.400;5.494;2023-03-03T19:13:07;102460.66;;;5.16;100.00
47897;BME280;39629;51.400;5.494;2023-03-03T19:18:33;102458.66;;;5.10;100.00
47897;BME280;39629;51.400;5.494;2023-03-03T19:23:48;102455.84;;;5.05;100.00
47897;BME280;39629;51.400;5.494;2023-03-03T19:28:55;102463.19;;;4.94;100.00
47897;BME280;39629;51.400;5.494;2023-03-03T19:34:04;102466.16;;;4.84;100.00
47897;BME280;39629;51.400;5.494;2023-03-03T19:39:19;102465.06;;;4.79;100.00
47897;BME280;39629;51.400;5.494;2023-03-03T19:44:39;102478.13;;;4.79;100.00
47897;BME280;39629;51.400;5.494;2023-03-03T19:49:56;102480.47;;;4.74;100.00
47897;BME280;39629;51.400;5.494;2023-03-03T19:55:23;102487.50;;;4.75;100.00
47897;BME280;39629;51.400;5.494;2023-03-03T20:00:31;102482.34;;;4.77;100.00
47897;BME280;39629;51.400;5.494;2023-03-03T20:05:39;102483.75;;;4.70;100.00
47897;BME280;39629;51.400;5.494;2023-03-03T20:10:50;102489.66;;;4.66;100.00
47897;BME280;39629;51.400;5.494;2023-03-03T20:16:01;102487.03;;;4.66;100.00
47897;BME280;39629;51.400;5.494;2023-03-03T20:21:18;102502.09;;;4.72;100.00
47897;BME280;39629;51.400;5.494;2023-03-03T20:26:27;102507.03;;;4.66;100.00
47897;BME280;39629;51.400;5.494;2023-03-03T20:31:35;102503.88;;;4.73;100.00
47897;BME280;39629;51.400;5.494;2023-03-03T20:36:47;102503.88;;;4.73;100.00
47897;BME280;39629;51.400;5.494;2023-03-03T20:42:01;102506.28;;;4.68;100.00
47897;BME280;39629;51.400;5.494;2023-03-03T20:47:13;102509.56;;;4.64;100.00
47897;BME280;39629;51.400;5.494;2023-03-03T20:52:22;102509.56;;;4.64;100.00
47897;BME280;39629;51.400;5.494;2023-03-03T20:57:34;102509.63;;;4.66;100.00
47897;BME280;39629;51.400;5.494;2023-03-03T21:02:43;102509.56;;;4.64;100.00
47897;BME280;39629;51.400;5.494;2023-03-03T21:07:51;102514.78;;;4.64;100.00
47897;BME280;39629;51.400;5.494;2023-03-03T21:12:55;102519.31;;;4.68;100.00
47897;BME280;39629;51.400;5.494;2023-03-03T21:17:58;102511.19;;;4.62;100.00
47897;BME280;39629;51.400;5.494;2023-03-03T21:23:01;102523.72;;;4.69;100.00
47897;BME280;39629;51.400;5.494;2023-03-03T21:28:18;102521.94;;;4.68;100.00
47897;BME280;39629;51.400;5.494;2023-03-03T21:33:39;102518.50;;;4.69;100.00
47897;BME280;39629;51.400;5.494;2023-03-03T21:38:42;102516.56;;;4.65;100.00
47897;BME280;39629;51.400;5.494;2023-03-03T21:43:46;102521.94;;;4.68;100.00
47897;BME280;39629;51.400;5.494;2023-03-03T21:48:49;102519.69;;;4.58;100.00
47897;BME280;39629;51.400;5.494;2023-03-03T21:53:51;102524.09;;;4.59;100.00
47897;BME280;39629;51.400;5.494;2023-03-03T21:58:52;102520.53;;;4.57;100.00
47897;BME280;39629;51.400;5.494;2023-03-03T22:03:55;102507.31;;;4.54;100.00
47897;BME280;39629;51.400;5.494;2023-03-03T22:08:57;102506.34;;;4.52;100.00
47897;BME280;39629;51.400;5.494;2023-03-03T22:13:58;102501.81;;;4.48;100.00
47897;BME280;39629;51.400;5.494;2023-03-03T22:19:02;102499.28;;;4.49;100.00
47897;BME280;39629;51.400;5.494;2023-03-03T22:24:04;102503.53;;;4.47;100.00
47897;BME280;39629;51.400;5.494;2023-03-03T22:29:06;102500.69;;;4.42;100.00
47897;BME280;39629;51.400;5.494;2023-03-03T22:34:09;102501.81;;;4.48;100.00
47897;BME280;39629;51.400;5.494;2023-03-03T22:39:11;102499.13;;;4.46;100.00
47897;BME280;39629;51.400;5.494;2023-03-03T22:44:12;102503.75;;;4.52;100.00
47897;BME280;39629;51.400;5.494;2023-03-03T22:49:15;102505.22;;;4.47;100.00
47897;BME280;39629;51.400;5.494;2023-03-03T22:54:17;102497.06;;;4.39;100.00
47897;BME280;39629;51.400;5.494;2023-03-03T22:59:18;102502.56;;;4.45;100.00
47897;BME280;39629;51.400;5.494;2023-03-03T23:04:21;102509.03;;;4.53;100.00
47897;BME280;39629;51.400;5.494;2023-03-03T23:09:23;102508.81;;;4.49;100.00
47897;BME280;39629;51.400;5.494;2023-03-03T23:14:24;102505.91;;;4.42;100.00
47897;BME280;39629;51.400;5.494;2023-03-03T23:19:27;102497.28;;;4.43;100.00
47897;BME280;39629;51.400;5.494;2023-03-03T23:24:29;102497.19;;;4.42;100.00
47897;BME280;39629;51.400;5.494;2023-03-03T23:29:32;102498.75;;;4.38;100.00
47897;BME280;39629;51.400;5.494;2023-03-03T23:34:35;102495.47;;;4.42;100.00
47897;BME280;39629;51.400;5.494;2023-03-03T23:39:36;102499.00;;;4.43;100.00
47897;BME280;39629;51.400;5.494;2023-03-03T23:44:40;102493.91;;;4.46;100.00
47897;BME280;39629;51.400;5.494;2023-03-03T23:49:43;102494.66;;;4.43;100.00
47897;BME280;39629;51.400;5.494;2023-03-03T23:54:44;102500.16;;;4.50;100.00
47897;BME280;39629;51.400;5.494;2023-03-03T23:59:46;102496.47;;;4.45;100.00
